Time,TemperatureF,DewpointF,PressureIn,WindDirection,WindDirectionDegrees,WindSpeedMPH,WindSpeedGustMPH,Humidity,HourlyPrecipIn,Conditions,Clouds,dailyrainin,SolarRadiationWatts/m^2,SoftwareType,DateUTC
2013-03-16 00:05:00,49.6,43.0,30.18,East,86,1.0,-999.0,77,-99.99,,,0.00,0,weatherlink.com 1.10,2013-03-16 04:05:00,
2013-03-16 00:20:00,48.6,42.0,30.18,East,86,0.0,-999.0,79,-99.99,,,0.00,0,weatherlink.com 1.10,2013-03-16 04:20:00,
2013-03-16 00:35:00,48.0,42.0,30.19,East,86,0.0,-999.0,80,-99.99,,,0.00,0,weatherlink.com 1.10,2013-03-16 04:35:00,
2013-03-16 00:50:00,47.4,42.0,30.19,East,86,0.0,-999.0,82,-99.99,,,0.00,0,weatherlink.com 1.10,2013-03-16 04:50:00,
2013-03-16 01:05:00,47.0,42.0,30.18,East,86,0.0,-999.0,83,-99.99,,,0.00,0,weatherlink.com 1.10,2013-03-16 05:05:00,
2013-03-16 01:20:00,47.0,42.0,30.18,East,86,0.0,-999.0,83,-99.99,,,0.00,0,weatherlink.com 1.10,2013-03-16 05:20:00,
2013-03-16 01:35:00,46.1,42.0,30.17,East,86,0.0,-999.0,84,-99.99,,,0.00,0,weatherlink.com 1.10,2013-03-16 05:35:00,
2013-03-16 01:51:00,45.5,41.0,30.16,East,86,0.0,-999.0,85,-99.99,,,0.00,0,weatherlink.com 1.10,2013-03-16 05:51:00,
2013-03-16 02:05:00,45.4,42.0,30.16,East,86,0.0,-999.0,86,-99.99,,,0.00,0,weatherlink.com 1.10,2013-03-16 06:05:00,
2013-03-16 02:20:00,46.0,42.0,30.16,East,86,0.0,-999.0,86,-99.99,,,0.00,0,weatherlink.com 1.10,2013-03-16 06:20:00,
2013-03-16 02:35:00,45.8,42.0,30.16,East,86,0.0,-999.0,85,-99.99,,,0.00,0,weatherlink.com 1.10,2013-03-16 06:35:00,
2013-03-16 02:50:00,45.7,42.0,30.16,East,86,0.0,-999.0,86,-99.99,,,0.00,0,weatherlink.com 1.10,2013-03-16 06:50:00,
2013-03-16 03:21:00,45.8,43.0,30.15,East,86,0.0,-999.0,89,-99.99,,,0.00,0,weatherlink.com 1.10,2013-03-16 07:21:00,
2013-03-16 03:35:00,45.1,42.0,30.15,East,86,0.0,-999.0,89,-99.99,,,0.00,0,weatherlink.com 1.10,2013-03-16 07:35:00,
2013-03-16 03:50:00,43.5,41.0,30.15,East,86,0.0,-999.0,91,-99.99,,,0.00,0,weatherlink.com 1.10,2013-03-16 07:50:00,
2013-03-16 04:05:00,42.8,41.0,30.15,East,86,0.0,-999.0,93,-99.99,,,0.00,0,weatherlink.com 1.10,2013-03-16 08:05:00,
2013-03-16 04:20:00,42.6,41.0,30.15,East,86,0.0,-999.0,94,-99.99,,,0.00,0,weatherlink.com 1.10,2013-03-16 08:20:00,
2013-03-16 04:35:00,42.1,41.0,30.14,East,86,0.0,-999.0,95,-99.99,,,0.00,0,weatherlink.com 1.10,2013-03-16 08:35:00,
2013-03-16 04:50:00,41.8,41.0,30.14,East,86,0.0,-999.0,95,-99.99,,,0.00,0,weatherlink.com 1.10,2013-03-16 08:50:00,
2013-03-16 05:05:00,42.3,42.0,30.14,East,86,0.0,-999.0,97,-99.99,,,0.00,0,weatherlink.com 1.10,2013-03-16 09:05:00,
2013-03-16 05:20:00,43.5,43.0,30.14,SE,135,0.0,-999.0,98,-99.99,,,0.00,0,weatherlink.com 1.10,2013-03-16 09:20:00,
2013-03-16 05:35:00,43.2,43.0,30.15,SE,135,0.0,-999.0,98,-99.99,,,0.00,0,weatherlink.com 1.10,2013-03-16 09:35:00,
2013-03-16 05:50:00,42.8,42.0,30.15,SE,135,0.0,-999.0,98,-99.99,,,0.00,0,weatherlink.com 1.10,2013-03-16 09:50:00,
2013-03-16 06:05:00,42.5,42.0,30.15,SE,135,0.0,-999.0,98,-99.99,,,0.00,0,weatherlink.com 1.10,2013-03-16 10:05:00,
2013-03-16 06:21:00,42.2,42.0,30.15,SE,135,0.0,-999.0,99,-99.99,,,0.00,0,weatherlink.com 1.10,2013-03-16 10:21:00,
2013-03-16 06:35:00,42.3,42.0,30.16,SE,135,0.0,-999.0,99,-99.99,,,0.00,0,weatherlink.com 1.10,2013-03-16 10:35:00,
2013-03-16 06:50:00,42.8,43.0,30.16,SE,135,0.0,-999.0,99,-99.99,,,0.00,0,weatherlink.com 1.10,2013-03-16 10:50:00,
2013-03-16 07:05:00,41.8,42.0,30.16,SE,135,0.0,-999.0,99,-99.99,,,0.00,0,weatherlink.com 1.10,2013-03-16 11:05:00,
2013-03-16 07:20:00,43.1,43.0,30.16,SE,135,0.0,-999.0,100,-99.99,,,0.00,0,weatherlink.com 1.10,2013-03-16 11:20:00,
2013-03-16 07:35:00,42.9,43.0,30.17,SE,135,0.0,-999.0,100,-99.99,,,0.00,0,weatherlink.com 1.10,2013-03-16 11:35:00,
2013-03-16 07:50:00,43.5,44.0,30.17,SE,135,0.0,-999.0,100,-99.99,,,0.00,18,weatherlink.com 1.10,2013-03-16 11:50:00,
2013-03-16 08:05:00,42.9,43.0,30.18,SE,135,0.0,-999.0,100,-99.99,,,0.00,25,weatherlink.com 1.10,2013-03-16 12:05:00,
2013-03-16 08:21:00,43.8,44.0,30.18,SE,135,0.0,-999.0,100,-99.99,,,0.00,79,weatherlink.com 1.10,2013-03-16 12:21:00,
2013-03-16 08:35:00,46.0,46.0,30.18,SE,135,0.0,-999.0,100,-99.99,,,0.00,127,weatherlink.com 1.10,2013-03-16 12:35:00,
2013-03-16 08:50:00,49.5,50.0,30.18,SE,135,0.0,-999.0,100,-99.99,,,0.00,169,weatherlink.com 1.10,2013-03-16 12:50:00,
2013-03-16 09:05:00,51.1,51.0,30.18,SE,135,0.0,-999.0,100,-99.99,,,0.00,213,weatherlink.com 1.10,2013-03-16 13:05:00,
2013-03-16 09:20:00,52.8,53.0,30.18,SE,135,0.0,-999.0,100,-99.99,,,0.00,265,weatherlink.com 1.10,2013-03-16 13:20:00,
2013-03-16 09:35:00,52.9,53.0,30.19,SE,135,0.0,-999.0,100,-99.99,,,0.00,329,weatherlink.com 1.10,2013-03-16 13:35:00,
2013-03-16 09:50:00,53.8,53.0,30.19,SE,135,0.0,-999.0,98,-99.99,,,0.00,385,weatherlink.com 1.10,2013-03-16 13:50:00,
2013-03-16 10:05:00,57.3,54.0,30.18,SSW,198,0.0,-999.0,87,-99.99,,,0.00,439,weatherlink.com 1.10,2013-03-16 14:05:00,
2013-03-16 10:20:00,60.9,53.0,30.19,WSW,243,7.0,-999.0,75,-99.99,,,0.00,492,weatherlink.com 1.10,2013-03-16 14:20:00,
2013-03-16 10:35:00,63.5,53.0,30.18,SSW,207,2.0,-999.0,68,-99.99,,,0.00,540,weatherlink.com 1.10,2013-03-16 14:35:00,
2013-03-16 10:50:00,66.1,53.0,30.18,SSW,207,8.0,-999.0,63,-99.99,,,0.00,584,weatherlink.com 1.10,2013-03-16 14:50:00,
2013-03-16 11:05:00,67.1,53.0,30.17,South,189,1.0,-999.0,62,-99.99,,,0.00,633,weatherlink.com 1.10,2013-03-16 15:05:00,
2013-03-16 11:20:00,68.3,51.0,30.17,SSW,199,5.0,-999.0,55,-99.99,,,0.00,673,weatherlink.com 1.10,2013-03-16 15:20:00,
2013-03-16 11:35:00,69.1,53.0,30.16,SSE,150,8.0,-999.0,56,-99.99,,,0.00,710,weatherlink.com 1.10,2013-03-16 15:35:00,
2013-03-16 11:50:00,69.3,51.0,30.16,SW,236,4.0,-999.0,53,-99.99,,,0.00,751,weatherlink.com 1.10,2013-03-16 15:50:00,
2013-03-16 12:05:00,70.4,50.0,30.16,South,183,0.0,-999.0,48,-99.99,,,0.00,780,weatherlink.com 1.10,2013-03-16 16:05:00,
2013-03-16 12:20:00,71.3,49.0,30.16,SW,225,4.0,-999.0,45,-99.99,,,0.00,814,weatherlink.com 1.10,2013-03-16 16:20:00,
2013-03-16 12:35:00,72.0,48.0,30.15,SSE,166,0.0,-999.0,43,-99.99,,,0.00,835,weatherlink.com 1.10,2013-03-16 16:35:00,
2013-03-16 12:50:00,71.8,47.0,30.14,WSW,248,1.0,-999.0,41,-99.99,,,0.00,861,weatherlink.com 1.10,2013-03-16 16:50:00,
2013-03-16 13:05:00,72.8,48.0,30.13,West,259,6.0,-999.0,41,-99.99,,,0.00,872,weatherlink.com 1.10,2013-03-16 17:05:00,
2013-03-16 13:20:00,73.3,47.0,30.12,WNW,286,3.0,-999.0,39,-99.99,,,0.00,888,weatherlink.com 1.10,2013-03-16 17:20:00,
2013-03-16 13:35:00,73.7,46.0,30.12,WNW,283,2.0,-999.0,37,-99.99,,,0.00,895,weatherlink.com 1.10,2013-03-16 17:35:00,
2013-03-16 13:50:00,74.6,47.0,30.11,WSW,255,3.0,-999.0,37,-99.99,,,0.00,891,weatherlink.com 1.10,2013-03-16 17:50:00,
2013-03-16 14:05:00,75.1,47.0,30.10,WSW,242,5.0,-999.0,37,-99.99,,,0.00,896,weatherlink.com 1.10,2013-03-16 18:05:00,
2013-03-16 14:20:00,75.3,44.0,30.09,ESE,119,0.0,-999.0,33,-99.99,,,0.00,891,weatherlink.com 1.10,2013-03-16 18:20:00,
2013-03-16 14:35:00,75.3,43.0,30.09,NW,309,0.0,-999.0,31,-99.99,,,0.00,879,weatherlink.com 1.10,2013-03-16 18:35:00,
2013-03-16 14:50:00,75.8,45.0,30.08,NW,310,2.0,-999.0,33,-99.99,,,0.00,865,weatherlink.com 1.10,2013-03-16 18:50:00,
2013-03-16 15:05:00,76.8,46.0,30.07,WSW,250,2.0,-999.0,34,-99.99,,,0.00,844,weatherlink.com 1.10,2013-03-16 19:05:00,
2013-03-16 15:20:00,77.2,43.0,30.07,SW,223,4.0,-999.0,29,-99.99,,,0.00,812,weatherlink.com 1.10,2013-03-16 19:20:00,
2013-03-16 15:35:00,77.0,43.0,30.06,WSW,255,6.0,-999.0,30,-99.99,,,0.00,772,weatherlink.com 1.10,2013-03-16 19:35:00,
2013-03-16 15:50:00,76.8,42.0,30.06,West,269,7.0,-999.0,29,-99.99,,,0.00,768,weatherlink.com 1.10,2013-03-16 19:50:00,
2013-03-16 16:21:00,77.6,42.0,30.05,South,171,0.0,-999.0,28,-99.99,,,0.00,694,weatherlink.com 1.10,2013-03-16 20:21:00,
2013-03-16 16:36:00,77.9,42.0,30.05,WNW,286,5.0,-999.0,28,-99.99,,,0.00,663,weatherlink.com 1.10,2013-03-16 20:36:00,
2013-03-16 16:51:00,78.3,43.0,30.05,NW,311,3.0,-999.0,28,-99.99,,,0.00,613,weatherlink.com 1.10,2013-03-16 20:51:00,
2013-03-16 17:21:00,78.1,42.0,30.04,WSW,243,1.0,-999.0,28,-99.99,,,0.00,487,weatherlink.com 1.10,2013-03-16 21:21:00,
2013-03-16 17:36:00,78.3,43.0,30.04,West,279,3.0,-999.0,28,-99.99,,,0.00,466,weatherlink.com 1.10,2013-03-16 21:36:00,
2013-03-16 17:51:00,77.4,42.0,30.03,WNW,283,4.0,-999.0,28,-99.99,,,0.00,218,weatherlink.com 1.10,2013-03-16 21:51:00,
2013-03-16 18:21:00,76.1,46.0,30.04,West,265,8.0,-999.0,35,-99.99,,,0.00,186,weatherlink.com 1.10,2013-03-16 22:21:00,
2013-03-16 18:51:00,71.6,48.0,30.05,WSW,247,3.0,-999.0,43,-99.99,,,0.00,91,weatherlink.com 1.10,2013-03-16 22:51:00,
2013-03-16 19:21:00,68.6,48.0,30.06,WSW,254,4.0,-999.0,48,-99.99,,,0.00,21,weatherlink.com 1.10,2013-03-16 23:21:00,
2013-03-16 19:36:00,67.4,48.0,30.06,WSW,258,0.0,-999.0,50,-99.99,,,0.00,7,weatherlink.com 1.10,2013-03-16 23:36:00,
2013-03-16 20:06:00,65.0,49.0,30.06,WNW,285,0.0,-999.0,56,-99.99,,,0.00,0,weatherlink.com 1.10,2013-03-17 00:06:00,
2013-03-16 20:21:00,63.7,49.0,30.07,WSW,249,0.0,-999.0,59,-99.99,,,0.00,0,weatherlink.com 1.10,2013-03-17 00:21:00,
2013-03-16 20:36:00,62.4,49.0,30.07,WSW,250,0.0,-999.0,63,-99.99,,,0.00,0,weatherlink.com 1.10,2013-03-17 00:36:00,
2013-03-16 20:51:00,61.5,49.0,30.08,WSW,250,2.0,-999.0,64,-99.99,,,0.00,0,weatherlink.com 1.10,2013-03-17 00:51:00,
2013-03-16 21:06:00,60.9,49.0,30.08,West,267,0.0,-999.0,64,-99.99,,,0.00,0,weatherlink.com 1.10,2013-03-17 01:06:00,
2013-03-16 21:21:00,60.4,48.0,30.08,West,267,0.0,-999.0,65,-99.99,,,0.00,0,weatherlink.com 1.10,2013-03-17 01:21:00,
2013-03-16 21:36:00,59.3,49.0,30.09,West,267,0.0,-999.0,68,-99.99,,,0.00,0,weatherlink.com 1.10,2013-03-17 01:36:00,
2013-03-16 21:51:00,57.6,48.0,30.09,West,267,0.0,-999.0,71,-99.99,,,0.00,0,weatherlink.com 1.10,2013-03-17 01:51:00,
2013-03-16 22:06:00,56.5,48.0,30.09,West,267,0.0,-999.0,74,-99.99,,,0.00,0,weatherlink.com 1.10,2013-03-17 02:06:00,
2013-03-16 22:21:00,55.0,48.0,30.10,West,267,0.0,-999.0,77,-99.99,,,0.00,0,weatherlink.com 1.10,2013-03-17 02:21:00,
2013-03-16 22:35:00,54.1,48.0,30.10,West,267,0.0,-999.0,80,-99.99,,,0.00,0,weatherlink.com 1.10,2013-03-17 02:35:00,
2013-03-16 22:51:00,53.6,48.0,30.10,West,267,0.0,-999.0,82,-99.99,,,0.00,0,weatherlink.com 1.10,2013-03-17 02:51:00,
2013-03-16 23:05:00,53.1,48.0,30.11,West,267,0.0,-999.0,83,-99.99,,,0.00,0,weatherlink.com 1.10,2013-03-17 03:05:00,
2013-03-16 23:21:00,52.8,48.0,30.11,West,267,0.0,-999.0,85,-99.99,,,0.00,0,weatherlink.com 1.10,2013-03-17 03:21:00,
2013-03-16 23:35:00,52.2,48.0,30.11,West,267,0.0,-999.0,86,-99.99,,,0.00,0,weatherlink.com 1.10,2013-03-17 03:35:00,
2013-03-16 23:51:00,51.6,48.0,30.11,West,267,0.0,-999.0,87,-99.99,,,0.00,0,weatherlink.com 1.10,2013-03-17 03:51:00,